Terminal Aerodrome Forecast
Issued by NWS

Home | Current Version | Previous Version | Text Only | Print | Product List | Glossary On
Versions: 1 2 3 4 5 6 7 8 9 10 11 12 13 14 15 16 17 18 19 20 21 22 23 24 25 26 27
000
FTUS44 KOUN 270522
TAFGAG
TAF
KGAG 270522Z 2706/2806 14008KT P6SM SCT050 BKN250
     FM270900 16005KT 5SM BR BKN015
     FM271500 18012KT P6SM SCT015 BKN080
     FM271900 18014G23KT P6SM BKN080 BKN120 PROB30 2719/2724 P6SM
      -TSRA BKN015CB
     FM280000 15016KT P6SM BKN025 PROB30 2800/2806 2SM TSRA BKN025CB
      OVC050=

USA.gov is the U.S. government's official web portal to all federal, state and local government web resources and services.